createdAt,value
2023-03-24T00:03:22.352Z,1063.00
2023-03-24T00:07:22.169Z,1056.00
2023-03-24T00:11:22.137Z,1046.00
2023-03-24T00:15:22.116Z,1047.00
2023-03-24T00:19:22.051Z,1052.00
2023-03-24T00:23:22.047Z,1053.00
2023-03-24T00:27:22.059Z,1053.00
2023-03-24T00:31:22.132Z,1045.00
2023-03-24T00:35:22.262Z,1048.00
2023-03-24T00:39:22.949Z,1046.00
2023-03-24T00:43:22.643Z,1050.00
2023-03-24T00:47:22.914Z,1042.00
2023-03-24T00:51:23.128Z,1044.00
2023-03-24T00:55:23.511Z,1053.00
2023-03-24T00:59:23.516Z,1051.00
2023-03-24T01:03:23.729Z,1056.00
2023-03-24T01:07:23.696Z,1049.00
2023-03-24T01:11:23.732Z,1044.00
2023-03-24T01:15:23.616Z,1048.00
2023-03-24T01:19:23.596Z,1045.00
2023-03-24T01:23:23.539Z,1047.00
2023-03-24T01:27:23.971Z,1042.00
2023-03-24T01:31:23.557Z,1044.00
2023-03-24T01:35:28.391Z,1041.00
2023-03-24T01:39:23.428Z,1042.00
2023-03-24T01:43:23.389Z,1044.00
2023-03-24T01:47:24.016Z,1044.00
2023-03-24T01:51:23.322Z,1046.00
2023-03-24T01:55:23.295Z,1044.00
2023-03-24T01:59:23.231Z,1041.00
2023-03-24T02:03:23.161Z,1037.00
2023-03-24T02:07:23.149Z,1041.00
2023-03-24T02:11:23.990Z,1039.00
2023-03-24T02:15:23.292Z,1033.00
2023-03-24T02:19:24.301Z,1030.00
2023-03-24T02:23:24.011Z,1037.00
2023-03-24T02:27:23.536Z,1035.00
2023-03-24T02:31:23.252Z,1032.00
2023-03-24T02:35:23.519Z,1030.00
2023-03-24T02:39:23.189Z,1034.00
2023-03-24T02:43:23.197Z,1026.00
2023-03-24T02:47:23.148Z,1030.00
2023-03-24T02:51:23.104Z,1031.00
2023-03-24T02:55:23.013Z,1030.00
2023-03-24T02:59:23.008Z,1025.00
2023-03-24T03:03:22.964Z,1027.00
2023-03-24T03:07:23.045Z,1023.00
2023-03-24T03:11:23.012Z,1024.00
2023-03-24T03:15:22.975Z,1020.00
2023-03-24T03:19:23.070Z,1016.00
2023-03-24T03:23:22.929Z,1017.00
2023-03-24T03:27:22.848Z,1020.00
2023-03-24T03:31:22.849Z,1020.00
2023-03-24T03:35:25.515Z,1023.00
2023-03-24T03:39:22.752Z,1017.00
2023-03-24T03:43:22.687Z,1015.00
2023-03-24T03:47:22.654Z,1016.00
2023-03-24T03:51:22.632Z,1017.00
2023-03-24T03:55:22.718Z,1014.00
2023-03-24T03:59:22.600Z,1019.00
2023-03-24T04:03:22.690Z,1022.00
2023-03-24T04:07:22.640Z,1022.00
2023-03-24T04:11:22.598Z,1008.00
2023-03-24T04:15:22.577Z,1010.00
2023-03-24T04:19:22.491Z,1010.00
2023-03-24T04:23:22.400Z,1016.00
2023-03-24T04:27:22.378Z,1014.00
2023-03-24T04:31:22.446Z,1015.00
2023-03-24T04:35:22.286Z,1016.00
2023-03-24T04:39:23.074Z,1010.00
2023-03-24T04:43:22.276Z,1010.00
2023-03-24T04:47:22.193Z,1006.00
2023-03-24T04:51:22.170Z,1005.00
2023-03-24T04:55:22.299Z,1009.00
2023-03-24T04:59:22.258Z,1013.00
2023-03-24T05:03:22.190Z,1010.00
2023-03-24T05:07:22.208Z,1010.00
2023-03-24T05:11:22.178Z,1004.00
2023-03-24T05:15:22.103Z,1004.00
2023-03-24T05:19:22.081Z,998.00
2023-03-24T05:23:22.052Z,997.00
2023-03-24T05:27:21.982Z,998.00
2023-03-24T05:31:21.936Z,997.00
2023-03-24T05:35:22.012Z,992.00
2023-03-24T05:39:21.979Z,985.00
2023-03-24T05:43:21.919Z,994.00
2023-03-24T05:47:21.940Z,990.00
2023-03-24T05:51:21.900Z,988.00
2023-03-24T05:55:21.888Z,988.00
2023-03-24T05:59:21.802Z,990.00
2023-03-24T06:03:22.001Z,982.00
2023-03-24T06:07:21.712Z,988.00
2023-03-24T06:11:21.722Z,987.00
2023-03-24T06:15:21.741Z,988.00
2023-03-24T06:19:21.661Z,986.00
2023-03-24T06:23:21.805Z,985.00
2023-03-24T06:27:21.964Z,988.00
2023-03-24T06:31:23.115Z,990.00
2023-03-24T06:35:23.925Z,995.00
2023-03-24T06:39:24.085Z,988.00
2023-03-24T06:43:22.595Z,992.00
2023-03-24T06:47:22.790Z,987.00
2023-03-24T06:51:22.878Z,989.00
2023-03-24T06:55:23.111Z,981.00
2023-03-24T06:59:23.342Z,981.00
2023-03-24T07:03:23.630Z,980.00
2023-03-24T07:07:56.949Z,977.00
2023-03-24T07:11:24.501Z,975.00
2023-03-24T07:15:23.400Z,973.00
2023-03-24T07:19:23.415Z,975.00
2023-03-24T07:23:23.658Z,977.00
2023-03-24T07:27:23.677Z,974.00
2023-03-24T07:31:24.228Z,968.00
2023-03-24T07:35:23.909Z,973.00
2023-03-24T07:39:24.169Z,976.00
2023-03-24T07:43:24.350Z,982.00
2023-03-24T07:47:24.304Z,985.00
2023-03-24T07:51:24.637Z,983.00
2023-03-24T07:55:24.565Z,982.00
2023-03-24T07:59:26.615Z,976.00
2023-03-24T08:03:24.742Z,973.00
2023-03-24T08:07:24.528Z,976.00
2023-03-24T08:11:24.536Z,971.00
2023-03-24T08:15:24.455Z,967.00
2023-03-24T08:19:24.382Z,965.00
2023-03-24T08:23:24.381Z,967.00
2023-03-24T08:27:24.295Z,965.00
2023-03-24T08:31:24.522Z,970.00
2023-03-24T08:35:24.314Z,973.00
2023-03-24T08:39:24.238Z,972.00
2023-03-24T08:43:24.320Z,981.00
2023-03-24T08:47:24.182Z,978.00
2023-03-24T08:51:24.287Z,975.00
2023-03-24T08:55:24.093Z,972.00
2023-03-24T08:59:24.671Z,970.00
2023-03-24T09:03:24.241Z,971.00
2023-03-24T09:07:24.276Z,971.00
2023-03-24T09:11:23.898Z,976.00
2023-03-24T09:15:23.840Z,971.00
2023-03-24T09:19:23.877Z,974.00
2023-03-24T09:23:24.364Z,966.00
2023-03-24T09:27:23.835Z,967.00
2023-03-24T09:31:23.854Z,966.00
2023-03-24T09:35:23.966Z,965.00
2023-03-24T09:39:23.949Z,968.00
2023-03-24T09:43:24.628Z,970.00
2023-03-24T09:47:23.999Z,972.00
2023-03-24T09:51:23.975Z,965.00
2023-03-24T09:55:23.935Z,968.00
2023-03-24T09:59:24.181Z,966.00
2023-03-24T10:03:24.232Z,966.00
2023-03-24T10:07:24.114Z,972.00
2023-03-24T10:11:24.195Z,970.00
2023-03-24T10:15:37.391Z,975.00
2023-03-24T10:19:25.432Z,969.00
2023-03-24T10:23:24.208Z,966.00
2023-03-24T10:27:24.193Z,968.00
2023-03-24T10:31:24.124Z,978.00
2023-03-24T10:35:24.056Z,975.00
2023-03-24T10:39:31.296Z,974.00
2023-03-24T10:43:25.073Z,972.00
2023-03-24T10:47:24.788Z,970.00
2023-03-24T10:51:24.014Z,972.00
2023-03-24T10:55:24.713Z,974.00
2023-03-24T10:59:24.171Z,975.00
2023-03-24T11:03:23.950Z,978.00
2023-03-24T11:07:23.916Z,975.00
2023-03-24T11:11:23.971Z,968.00
2023-03-24T11:15:24.497Z,971.00
2023-03-24T11:19:23.997Z,967.00
2023-03-24T11:23:24.126Z,966.00
2023-03-24T11:27:24.757Z,964.00
2023-03-24T11:31:24.083Z,963.00
2023-03-24T11:35:35.341Z,966.00
2023-03-24T11:39:24.988Z,965.00
2023-03-24T11:43:24.120Z,989.00
2023-03-24T11:47:24.072Z,986.00
2023-03-24T11:51:24.089Z,986.00
2023-03-24T11:55:23.943Z,986.00
2023-03-24T11:59:23.893Z,982.00
2023-03-24T12:03:24.031Z,983.00
2023-03-24T12:07:23.895Z,976.00
2023-03-24T12:11:23.861Z,980.00
2023-03-24T12:15:28.632Z,982.00
2023-03-24T12:19:24.810Z,976.00
2023-03-24T12:23:23.764Z,979.00
2023-03-24T12:27:23.788Z,982.00
2023-03-24T12:31:23.867Z,988.00
2023-03-24T12:35:23.733Z,986.00
2023-03-24T12:39:23.680Z,981.00
2023-03-24T12:43:23.733Z,982.00
2023-03-24T12:47:23.694Z,984.00
